createdAt,value
2023-01-18T00:01:41.554Z,11.63
2023-01-18T00:04:19.404Z,12.07
2023-01-18T00:06:51.103Z,11.75
2023-01-18T00:09:25.918Z,11.77
2023-01-18T00:11:57.565Z,11.50
2023-01-18T00:17:30.299Z,12.38
2023-01-18T00:20:01.933Z,12.57
2023-01-18T00:22:33.558Z,12.70
2023-01-18T00:25:07.094Z,13.48
2023-01-18T00:27:44.220Z,13.15
2023-01-18T00:30:23.702Z,12.52
2023-01-18T00:32:58.889Z,12.45
2023-01-18T00:35:32.114Z,13.55
2023-01-18T00:38:03.819Z,13.43
2023-01-18T00:40:35.502Z,14.15
2023-01-18T00:43:31.751Z,13.10
2023-01-18T00:46:03.924Z,14.43
2023-01-18T00:48:36.421Z,13.52
2023-01-18T00:51:10.526Z,12.05
2023-01-18T00:53:46.047Z,12.73
2023-01-18T00:56:21.788Z,13.73
2023-01-18T00:58:53.463Z,13.27
2023-01-18T01:01:25.243Z,12.55
2023-01-18T01:04:15.935Z,13.27
2023-01-18T01:06:47.827Z,13.95
2023-01-18T01:09:22.998Z,13.07
2023-01-18T01:12:17.044Z,12.10
2023-01-18T01:15:10.586Z,12.57
2023-01-18T01:18:00.914Z,12.18
2023-01-18T01:20:57.475Z,11.95
2023-01-18T01:23:49.514Z,11.93
2023-01-18T01:26:21.381Z,11.73
2023-01-18T01:28:55.871Z,11.48
2023-01-18T01:31:30.604Z,12.45
2023-01-18T01:36:36.806Z,11.90
2023-01-18T01:39:11.009Z,10.65
2023-01-18T01:41:42.682Z,10.68
2023-01-18T01:44:20.079Z,10.13
2023-01-18T01:46:57.596Z,9.68
2023-01-18T01:49:36.842Z,9.32
2023-01-18T01:52:12.035Z,8.95
2023-01-18T01:55:02.405Z,9.45
2023-01-18T01:58:18.017Z,8.93
2023-01-18T02:00:50.283Z,8.90
2023-01-18T02:03:34.125Z,8.90
2023-01-18T02:06:36.349Z,8.50
2023-01-18T02:09:16.862Z,7.70
2023-01-18T02:11:51.975Z,7.97
2023-01-18T02:14:27.216Z,8.02
2023-01-18T02:17:12.248Z,8.20
2023-01-18T02:20:24.266Z,8.55
2023-01-18T02:23:11.175Z,7.50
2023-01-18T02:25:50.192Z,7.25
2023-01-18T02:28:40.110Z,7.90
2023-01-18T02:31:43.066Z,7.68
2023-01-18T02:34:27.322Z,7.25
2023-01-18T02:37:03.235Z,6.75
2023-01-18T02:40:04.414Z,7.22
2023-01-18T02:42:57.908Z,7.18
2023-01-18T02:46:02.693Z,7.95
2023-01-18T02:48:40.468Z,7.30
2023-01-18T02:51:13.074Z,7.75
2023-01-18T02:53:46.536Z,7.43
2023-01-18T02:56:37.326Z,6.82
2023-01-18T02:59:11.984Z,6.95
2023-01-18T03:02:00.732Z,7.07
2023-01-18T03:04:58.478Z,6.68
2023-01-18T03:07:52.680Z,7.55
2023-01-18T03:10:36.836Z,7.15
2023-01-18T03:13:16.410Z,6.95
2023-01-18T03:16:23.262Z,7.03
2023-01-18T03:19:36.942Z,6.30
2023-01-18T03:22:10.330Z,6.80
2023-01-18T03:24:45.350Z,6.72
2023-01-18T03:27:42.844Z,6.57
2023-01-18T03:30:33.530Z,6.88
2023-01-18T03:33:27.155Z,6.70
2023-01-18T03:36:00.216Z,6.50
2023-01-18T03:38:33.973Z,6.25
2023-01-18T03:41:09.843Z,6.28
2023-01-18T03:43:43.657Z,6.93
2023-01-18T03:46:18.325Z,6.17
2023-01-18T03:48:50.102Z,6.85
2023-01-18T03:51:33.126Z,6.55
2023-01-18T03:54:15.524Z,6.00
2023-01-18T03:56:57.941Z,6.38
2023-01-18T03:59:42.101Z,7.20
2023-01-18T04:02:16.924Z,6.97
2023-01-18T04:07:38.378Z,7.43
2023-01-18T04:10:12.267Z,7.03
2023-01-18T04:12:43.997Z,7.68
2023-01-18T04:15:17.362Z,6.38
2023-01-18T04:17:53.227Z,7.10
2023-01-18T04:20:24.944Z,7.43
2023-01-18T04:22:56.993Z,6.63
2023-01-18T04:25:29.150Z,7.45
2023-01-18T04:28:03.681Z,6.97
2023-01-18T04:30:35.384Z,7.55
2023-01-18T04:33:07.080Z,7.75
2023-01-18T04:35:42.654Z,7.75
2023-01-18T04:38:14.787Z,7.20
2023-01-18T04:40:46.718Z,6.68
2023-01-18T04:43:18.543Z,7.38
2023-01-18T04:45:55.413Z,7.18
2023-01-18T04:48:28.346Z,7.53
2023-01-18T04:51:00.268Z,7.15
2023-01-18T04:53:35.367Z,7.28
2023-01-18T04:58:39.438Z,7.35
2023-01-18T05:01:14.635Z,7.65
2023-01-18T05:03:46.399Z,7.65
2023-01-18T05:06:19.981Z,7.65
2023-01-18T05:09:10.147Z,7.82
2023-01-18T05:11:42.930Z,7.45
2023-01-18T05:14:14.766Z,7.20
2023-01-18T05:16:46.440Z,7.50
2023-01-18T05:19:18.104Z,7.25
2023-01-18T05:21:51.045Z,7.50
2023-01-18T05:24:24.297Z,7.78
2023-01-18T05:26:58.309Z,7.55
2023-01-18T05:29:30.123Z,7.60
2023-01-18T05:32:01.776Z,8.10
2023-01-18T05:34:34.538Z,8.20
2023-01-18T05:37:08.382Z,7.50
2023-01-18T05:39:40.184Z,7.38
2023-01-18T05:42:14.446Z,7.60
2023-01-18T05:44:49.369Z,8.00
2023-01-18T05:47:21.042Z,7.30
2023-01-18T05:49:52.750Z,7.30
2023-01-18T05:52:24.375Z,7.30
2023-01-18T05:54:58.899Z,7.32
2023-01-18T05:57:30.592Z,7.97
2023-01-18T06:00:03.512Z,7.90
2023-01-18T06:02:45.730Z,7.70
2023-01-18T06:05:17.439Z,10.18
2023-01-18T06:07:49.411Z,10.63
2023-01-18T06:10:21.272Z,13.68
2023-01-18T06:12:56.303Z,20.93
2023-01-18T06:15:28.192Z,22.85
2023-01-18T06:18:05.156Z,22.67
2023-01-18T06:20:36.858Z,21.20
2023-01-18T06:23:08.577Z,21.00
2023-01-18T06:25:40.306Z,19.17
2023-01-18T06:28:12.347Z,17.15
2023-01-18T06:30:46.412Z,17.13
2023-01-18T06:33:18.090Z,14.27
2023-01-18T06:35:49.787Z,11.95
2023-01-18T06:38:24.192Z,10.32
2023-01-18T06:43:28.006Z,9.93
2023-01-18T06:46:04.812Z,10.02
2023-01-18T06:48:36.507Z,9.80
2023-01-18T06:51:08.379Z,10.27
2023-01-18T06:53:40.121Z,10.80
2023-01-18T06:56:13.020Z,10.57
2023-01-18T06:58:47.029Z,9.73
2023-01-18T07:01:18.816Z,10.52
2023-01-18T07:03:50.686Z,10.30
2023-01-18T07:06:25.616Z,10.18
2023-01-18T07:11:31.903Z,11.07
2023-01-18T07:14:03.693Z,11.13
2023-01-18T07:16:37.836Z,10.80
2023-01-18T07:19:09.896Z,13.23
2023-01-18T07:21:41.713Z,10.68
2023-01-18T07:24:13.347Z,11.38
2023-01-18T07:26:47.730Z,11.68
2023-01-18T07:29:19.877Z,12.13
2023-01-18T07:31:51.949Z,11.80
2023-01-18T07:34:23.843Z,13.55
2023-01-18T07:36:55.694Z,12.82
2023-01-18T07:39:27.370Z,11.93
2023-01-18T07:42:00.065Z,12.63
2023-01-18T07:44:35.739Z,12.55
2023-01-18T07:47:07.953Z,13.73
2023-01-18T07:49:41.724Z,15.13
2023-01-18T07:52:13.446Z,15.40
2023-01-18T07:54:45.649Z,14.43
2023-01-18T07:57:17.376Z,13.80
2023-01-18T07:59:52.690Z,13.90
2023-01-18T08:04:59.033Z,11.05
2023-01-18T08:07:36.880Z,11.43
2023-01-18T08:10:12.589Z,11.50
2023-01-18T08:15:46.102Z,11.63
2023-01-18T08:18:18.102Z,12.00
2023-01-18T08:20:54.333Z,12.50
2023-01-18T08:23:26.963Z,11.90
2023-01-18T08:26:03.848Z,11.75
2023-01-18T08:28:36.968Z,11.85
2023-01-18T08:31:12.557Z,12.25
2023-01-18T08:33:47.665Z,11.77
2023-01-18T08:36:26.478Z,12.10
2023-01-18T08:39:09.252Z,12.20
2023-01-18T08:41:44.161Z,10.63
2023-01-18T08:46:47.446Z,11.05
2023-01-18T08:49:22.388Z,11.52
2023-01-18T08:51:54.096Z,10.15
2023-01-18T08:54:28.912Z,11.63
2023-01-18T08:59:38.012Z,11.40
2023-01-18T09:02:14.702Z,11.90
2023-01-18T09:04:49.813Z,12.57
2023-01-18T09:07:21.481Z,12.90
2023-01-18T09:09:58.086Z,11.82
2023-01-18T09:12:29.728Z,12.77
2023-01-18T09:15:01.835Z,12.32
2023-01-18T09:17:34.077Z,13.70
2023-01-18T09:20:10.742Z,12.27
2023-01-18T09:22:42.910Z,13.32
2023-01-18T09:25:14.787Z,12.05
2023-01-18T09:27:48.930Z,12.70
2023-01-18T09:30:20.671Z,13.68
2023-01-18T09:32:52.421Z,12.95
2023-01-18T09:35:27.452Z,12.48
2023-01-18T09:37:59.451Z,11.90
2023-01-18T09:40:43.175Z,11.68
2023-01-18T09:43:28.287Z,10.82
2023-01-18T09:46:00.007Z,10.93
2023-01-18T09:48:39.586Z,11.50
2023-01-18T09:51:22.839Z,12.15
2023-01-18T09:54:11.573Z,12.13
2023-01-18T09:57:01.520Z,12.18
2023-01-18T09:59:43.352Z,10.80
2023-01-18T10:02:29.373Z,13.55
2023-01-18T10:05:17.826Z,12.05
2023-01-18T10:08:07.964Z,13.20
2023-01-18T10:10:52.610Z,12.93
2023-01-18T10:13:50.871Z,13.55
2023-01-18T10:16:22.813Z,14.18
2023-01-18T10:18:57.279Z,12.68
2023-01-18T10:21:47.455Z,13.60
2023-01-18T10:24:53.026Z,12.80
2023-01-18T10:27:58.357Z,12.63
2023-01-18T10:30:41.020Z,12.40
2023-01-18T10:33:25.415Z,12.52
2023-01-18T10:36:26.755Z,12.98
2023-01-18T10:39:01.910Z,12.77
2023-01-18T10:41:40.749Z,12.73
2023-01-18T10:44:12.376Z,13.00
2023-01-18T10:46:45.654Z,12.55
2023-01-18T10:49:48.702Z,12.38
2023-01-18T10:52:49.759Z,11.73
2023-01-18T10:55:21.575Z,12.20
2023-01-18T10:57:54.860Z,12.50
2023-01-18T11:00:35.023Z,12.82
2023-01-18T11:03:15.387Z,13.73
2023-01-18T11:05:47.143Z,13.02
2023-01-18T11:08:22.658Z,12.73
2023-01-18T11:11:00.300Z,14.05
2023-01-18T11:13:42.403Z,14.18
2023-01-18T11:16:23.850Z,14.20
2023-01-18T11:19:01.466Z,13.35
2023-01-18T11:21:54.165Z,13.70
2023-01-18T11:24:31.406Z,14.55
2023-01-18T11:27:11.247Z,15.07
2023-01-18T11:29:45.479Z,15.98
2023-01-18T11:32:24.050Z,15.45
2023-01-18T11:34:58.757Z,16.45
2023-01-18T11:40:23.194Z,15.48
2023-01-18T11:43:18.524Z,16.13
2023-01-18T11:45:59.652Z,15.93
2023-01-18T11:49:18.832Z,15.52
2023-01-18T11:52:01.864Z,16.15
2023-01-18T11:55:04.362Z,15.65
2023-01-18T11:57:37.114Z,15.93
2023-01-18T12:00:14.616Z,16.88
2023-01-18T12:03:02.468Z,17.00
2023-01-18T12:05:46.032Z,16.67
2023-01-18T12:08:32.291Z,16.95
2023-01-18T12:11:24.020Z,16.27
2023-01-18T12:14:13.823Z,16.98
2023-01-18T12:17:01.727Z,18.27
2023-01-18T12:19:53.951Z,16.25
2023-01-18T12:22:43.553Z,17.88
2023-01-18T12:26:06.859Z,15.10
2023-01-18T12:29:04.749Z,16.02
2023-01-18T12:31:50.595Z,15.02
2023-01-18T12:34:51.186Z,15.98
2023-01-18T12:37:50.716Z,16.02
2023-01-18T12:40:22.523Z,16.70
2023-01-18T12:43:15.910Z,16.70
2023-01-18T12:46:00.727Z,16.67
2023-01-18T12:48:46.860Z,14.82
2023-01-18T12:51:22.851Z,15.13
2023-01-18T12:54:39.591Z,13.95
2023-01-18T12:57:13.294Z,14.52
2023-01-18T13:00:15.594Z,13.32
2023-01-18T13:02:54.631Z,14.13
2023-01-18T13:05:43.168Z,14.95
2023-01-18T13:08:40.248Z,14.35
2023-01-18T13:11:22.076Z,15.18
2023-01-18T13:14:39.706Z,14.98
2023-01-18T13:17:11.447Z,15.18
2023-01-18T13:20:00.451Z,15.32
2023-01-18T13:22:57.996Z,14.95
2023-01-18T13:25:55.392Z,14.18
2023-01-18T13:28:30.086Z,14.02
2023-01-18T13:31:05.421Z,14.68
2023-01-18T13:33:40.801Z,14.13
2023-01-18T13:36:19.112Z,14.27
2023-01-18T13:39:06.911Z,14.38
2023-01-18T13:41:38.576Z,13.90
2023-01-18T13:44:44.435Z,12.85
2023-01-18T13:47:45.805Z,13.88
2023-01-18T13:50:36.307Z,13.23
2023-01-18T13:53:22.603Z,13.30
2023-01-18T13:56:00.286Z,12.65
2023-01-18T13:58:38.528Z,12.80
2023-01-18T14:01:24.404Z,13.43
2023-01-18T14:04:21.140Z,12.98
2023-01-18T14:06:56.512Z,13.60
2023-01-18T14:09:55.210Z,13.38
2023-01-18T14:12:47.502Z,12.23
2023-01-18T14:15:44.150Z,13.35
2023-01-18T14:18:31.524Z,11.90
2023-01-18T14:21:38.716Z,11.85
2023-01-18T14:24:33.634Z,12.32
2023-01-18T14:27:10.100Z,11.75
2023-01-18T14:29:47.783Z,11.50
2023-01-18T14:32:26.187Z,12.30
2023-01-18T14:35:00.147Z,13.18
2023-01-18T14:37:34.343Z,12.20
2023-01-18T14:40:27.518Z,12.75
2023-01-18T14:43:11.801Z,12.57
2023-01-18T14:46:29.787Z,12.70
2023-01-18T14:49:03.310Z,12.73
2023-01-18T14:51:35.089Z,12.98
2023-01-18T14:54:07.000Z,11.82
2023-01-18T14:56:45.212Z,12.38
2023-01-18T14:59:19.640Z,11.57
2023-01-18T15:04:39.092Z,12.32
2023-01-18T15:07:18.147Z,12.40
2023-01-18T15:09:50.677Z,13.43
2023-01-18T15:12:29.025Z,13.35
2023-01-18T15:15:20.991Z,13.38
2023-01-18T15:18:02.528Z,12.80
2023-01-18T15:20:34.312Z,13.00
2023-01-18T15:23:06.815Z,12.57
2023-01-18T15:25:38.640Z,12.57
2023-01-18T15:28:22.948Z,12.85
2023-01-18T15:30:57.523Z,13.48
2023-01-18T15:33:32.019Z,12.65
2023-01-18T15:36:09.633Z,12.65
2023-01-18T15:38:41.660Z,12.68
2023-01-18T15:41:14.988Z,12.68
2023-01-18T15:43:50.759Z,12.30
2023-01-18T15:46:22.512Z,13.63
2023-01-18T15:48:57.876Z,14.55
2023-01-18T15:51:48.060Z,13.07
2023-01-18T15:54:29.934Z,13.75
2023-01-18T15:57:19.248Z,13.00
2023-01-18T15:59:51.024Z,12.60
2023-01-18T16:02:23.599Z,12.63
2023-01-18T16:05:13.711Z,13.57
2023-01-18T16:07:45.520Z,13.40
2023-01-18T16:10:18.210Z,14.32
2023-01-18T16:12:49.855Z,13.60
2023-01-18T16:15:27.427Z,13.45
2023-01-18T16:18:05.218Z,12.98
2023-01-18T16:20:37.076Z,14.18
2023-01-18T16:23:15.958Z,13.18
2023-01-18T16:25:54.423Z,14.23
2023-01-18T16:28:26.475Z,14.10
2023-01-18T16:30:59.810Z,14.00
2023-01-18T16:33:31.508Z,14.07
2023-01-18T16:36:16.432Z,15.13
2023-01-18T16:38:48.118Z,14.02
2023-01-18T16:41:19.804Z,13.68
2023-01-18T16:43:52.092Z,14.23
2023-01-18T16:46:23.796Z,14.13
2023-01-18T16:48:55.465Z,13.63
2023-01-18T16:51:28.727Z,15.95
2023-01-18T16:54:01.117Z,15.27
2023-01-18T16:56:33.062Z,13.60
2023-01-18T16:59:18.371Z,14.45
2023-01-18T17:01:51.556Z,15.32
2023-01-18T17:04:26.645Z,14.32
2023-01-18T17:06:58.290Z,14.82
2023-01-18T17:09:32.489Z,14.48
2023-01-18T17:12:06.649Z,15.23
2023-01-18T17:14:38.363Z,15.48
2023-01-18T17:17:11.366Z,14.63
2023-01-18T17:19:43.068Z,14.85
2023-01-18T17:22:14.825Z,15.82
2023-01-18T17:24:46.619Z,14.98
2023-01-18T17:27:18.274Z,14.65
2023-01-18T17:29:49.989Z,14.43
2023-01-18T17:32:21.680Z,15.57
2023-01-18T17:34:53.386Z,16.08
2023-01-18T17:37:25.094Z,15.48
2023-01-18T17:40:12.119Z,15.20
2023-01-18T17:42:46.240Z,16.15
2023-01-18T17:45:18.120Z,15.93
2023-01-18T17:47:53.763Z,15.70
2023-01-18T17:50:26.134Z,16.00
2023-01-18T17:52:58.088Z,16.05
2023-01-18T17:55:34.628Z,16.95
2023-01-18T17:58:06.944Z,15.90
2023-01-18T18:00:38.692Z,15.13
2023-01-18T18:03:10.475Z,16.58
2023-01-18T18:05:42.278Z,15.55
2023-01-18T18:08:13.984Z,15.23
2023-01-18T18:10:45.728Z,15.30
2023-01-18T18:13:19.286Z,14.88
2023-01-18T18:15:52.159Z,14.85
2023-01-18T18:18:25.351Z,15.05
2023-01-18T18:20:59.087Z,14.45
2023-01-18T18:23:35.064Z,15.32
2023-01-18T18:26:06.850Z,14.98
2023-01-18T18:28:38.563Z,15.52
2023-01-18T18:31:16.429Z,15.15
2023-01-18T18:33:48.375Z,16.08
2023-01-18T18:36:21.295Z,15.55
2023-01-18T18:38:55.683Z,14.85
2023-01-18T18:41:27.608Z,16.42
2023-01-18T18:43:59.355Z,13.70
2023-01-18T18:46:31.175Z,16.10
2023-01-18T18:49:02.955Z,14.77
2023-01-18T18:51:37.462Z,14.43
2023-01-18T18:54:13.139Z,13.88
2023-01-18T18:56:44.897Z,13.45
2023-01-18T18:59:16.599Z,12.07
2023-01-18T19:01:51.728Z,11.73
2023-01-18T19:04:23.688Z,10.77
2023-01-18T19:06:55.409Z,10.45
2023-01-18T19:09:27.110Z,11.35
2023-01-18T19:11:58.820Z,10.85
2023-01-18T19:14:30.710Z,10.73
2023-01-18T19:17:02.840Z,9.85
2023-01-18T19:19:34.551Z,10.30
2023-01-18T19:22:09.085Z,10.25
2023-01-18T19:24:41.577Z,9.35
2023-01-18T19:27:26.681Z,10.60
2023-01-18T19:29:58.322Z,11.55
2023-01-18T19:32:30.030Z,10.27
2023-01-18T19:35:01.774Z,11.23
2023-01-18T19:37:33.912Z,11.73
2023-01-18T19:40:07.533Z,11.20
2023-01-18T19:42:40.400Z,12.55
2023-01-18T19:45:19.656Z,11.38
2023-01-18T19:48:00.622Z,11.82
2023-01-18T19:50:32.352Z,10.93
2023-01-18T19:53:04.119Z,12.27
2023-01-18T19:55:38.340Z,11.63
2023-01-18T19:58:10.059Z,11.82
2023-01-18T20:00:41.816Z,12.63
2023-01-18T20:03:13.910Z,12.48
2023-01-18T20:05:45.684Z,11.90
2023-01-18T20:08:17.350Z,11.98
2023-01-18T20:10:49.172Z,11.10
2023-01-18T20:13:20.835Z,10.23
2023-01-18T20:15:54.640Z,9.90
2023-01-18T20:18:30.035Z,10.57
2023-01-18T20:21:10.703Z,10.35
2023-01-18T20:23:44.137Z,10.85
2023-01-18T20:26:34.825Z,9.95
2023-01-18T20:29:07.624Z,9.88
2023-01-18T20:31:39.979Z,10.07
2023-01-18T20:34:11.663Z,9.77
2023-01-18T20:36:45.973Z,9.73
2023-01-18T20:39:18.812Z,9.35
2023-01-18T20:41:53.219Z,10.50
2023-01-18T20:44:25.199Z,9.60
2023-01-18T20:46:57.405Z,9.50
2023-01-18T20:49:37.756Z,9.57
2023-01-18T20:52:10.243Z,10.02
2023-01-18T20:54:41.919Z,9.13
2023-01-18T20:57:13.880Z,8.98
2023-01-18T20:59:45.532Z,8.52
2023-01-18T21:02:17.349Z,8.35
2023-01-18T21:04:49.130Z,8.20
2023-01-18T21:07:20.939Z,8.68
2023-01-18T21:09:52.636Z,8.25
2023-01-18T21:12:24.402Z,8.13
2023-01-18T21:14:56.154Z,8.05
2023-01-18T21:17:27.852Z,7.85
2023-01-18T21:19:59.549Z,8.13
2023-01-18T21:22:31.273Z,7.45
2023-01-18T21:25:03.389Z,7.45
2023-01-18T21:27:36.676Z,7.45
2023-01-18T21:30:09.567Z,6.60
2023-01-18T21:32:41.527Z,6.70
2023-01-18T21:35:13.982Z,6.45
2023-01-18T21:37:45.787Z,6.35
2023-01-18T21:40:17.703Z,6.63
2023-01-18T21:43:18.429Z,6.93
2023-01-18T21:45:56.994Z,7.35
2023-01-18T21:48:30.487Z,6.95
2023-01-18T21:51:22.964Z,6.85
2023-01-18T21:54:14.734Z,6.68
2023-01-18T21:56:47.349Z,6.95
2023-01-18T21:59:19.029Z,6.70
2023-01-18T22:01:50.810Z,6.75
2023-01-18T22:04:41.226Z,7.32
2023-01-18T22:07:16.255Z,6.85
2023-01-18T22:10:03.073Z,6.78
2023-01-18T22:12:38.992Z,6.90
2023-01-18T22:15:11.806Z,7.00
2023-01-18T22:17:43.668Z,7.45
2023-01-18T22:20:15.836Z,7.75
2023-01-18T22:22:49.544Z,7.25
2023-01-18T22:25:21.482Z,7.25
2023-01-18T22:27:53.301Z,7.65
2023-01-18T22:30:28.692Z,7.60
2023-01-18T22:33:00.742Z,7.63
2023-01-18T22:35:32.422Z,6.68
2023-01-18T22:38:04.124Z,7.30
2023-01-18T22:40:35.831Z,5.88
2023-01-18T22:43:11.430Z,5.43
2023-01-18T22:45:43.102Z,4.80
2023-01-18T22:48:14.785Z,4.30
2023-01-18T22:50:55.026Z,3.80
2023-01-18T22:53:28.731Z,3.72
2023-01-18T22:56:03.613Z,3.50
2023-01-18T23:01:28.479Z,3.25
2023-01-18T23:04:03.675Z,3.50
2023-01-18T23:06:48.098Z,3.35
2023-01-18T23:09:20.399Z,3.20
2023-01-18T23:11:52.351Z,4.15
2023-01-18T23:14:42.571Z,3.50
2023-01-18T23:17:32.957Z,3.60
2023-01-18T23:20:10.889Z,4.03
2023-01-18T23:22:42.644Z,3.38
2023-01-18T23:25:14.340Z,3.35
2023-01-18T23:27:46.051Z,3.72
2023-01-18T23:30:19.019Z,3.17
2023-01-18T23:32:50.994Z,3.30
2023-01-18T23:35:22.867Z,3.70
2023-01-18T23:37:54.511Z,4.20
2023-01-18T23:40:44.397Z,3.78
2023-01-18T23:43:34.771Z,3.22
2023-01-18T23:46:24.923Z,3.17
2023-01-18T23:49:15.323Z,3.80
2023-01-18T23:52:05.494Z,3.80
2023-01-18T23:54:37.255Z,3.45
2023-01-18T23:57:08.937Z,3.33
2023-01-18T23:59:41.911Z,3.72
